sensor_id;sensor_type;location;lat;lon;timestamp;temperature;humidity
27741;DHT22;15134;48.768;9.184;2022-10-19T00:02:21;16.00;99.90
27741;DHT22;15134;48.768;9.184;2022-10-19T00:04:46;16.00;99.90
27741;DHT22;15134;48.768;9.184;2022-10-19T00:07:12;16.00;99.90
27741;DHT22;15134;48.768;9.184;2022-10-19T00:09:38;16.00;99.90
27741;DHT22;15134;48.768;9.184;2022-10-19T00:12:04;16.00;99.90
27741;DHT22;15134;48.768;9.184;2022-10-19T00:14:29;16.00;99.90
27741;DHT22;15134;48.768;9.184;2022-10-19T00:16:55;16.00;99.90
27741;DHT22;15134;48.768;9.184;2022-10-19T00:19:24;15.90;99.90
27741;DHT22;15134;48.768;9.184;2022-10-19T00:21:50;15.90;99.90
27741;DHT22;15134;48.768;9.184;2022-10-19T00:24:17;15.90;99.90
27741;DHT22;15134;48.768;9.184;2022-10-19T00:26:42;15.90;99.90
27741;DHT22;15134;48.768;9.184;2022-10-19T00:29:09;15.80;99.90
27741;DHT22;15134;48.768;9.184;2022-10-19T00:31:36;15.80;99.90
27741;DHT22;15134;48.768;9.184;2022-10-19T00:34:01;15.80;99.90
27741;DHT22;15134;48.768;9.184;2022-10-19T00:36:30;15.80;99.90
27741;DHT22;15134;48.768;9.184;2022-10-19T00:38:57;15.80;99.90
27741;DHT22;15134;48.768;9.184;2022-10-19T00:41:25;15.70;99.90
27741;DHT22;15134;48.768;9.184;2022-10-19T00:43:57;15.60;99.90
27741;DHT22;15134;48.768;9.184;2022-10-19T00:46:25;15.50;99.90
27741;DHT22;15134;48.768;9.184;2022-10-19T00:48:53;15.40;99.90
27741;DHT22;15134;48.768;9.184;2022-10-19T00:51:20;15.40;99.90
27741;DHT22;15134;48.768;9.184;2022-10-19T00:53:46;15.40;99.90
27741;DHT22;15134;48.768;9.184;2022-10-19T00:56:13;15.40;99.90
27741;DHT22;15134;48.768;9.184;2022-10-19T00:58:40;15.50;99.90
27741;DHT22;15134;48.768;9.184;2022-10-19T01:01:08;15.50;99.90
27741;DHT22;15134;48.768;9.184;2022-10-19T01:03:35;15.50;99.90
27741;DHT22;15134;48.768;9.184;2022-10-19T01:06:01;15.60;99.90
27741;DHT22;15134;48.768;9.184;2022-10-19T01:08:27;15.60;99.90
27741;DHT22;15134;48.768;9.184;2022-10-19T01:11:18;15.70;99.90
27741;DHT22;15134;48.768;9.184;2022-10-19T01:19:43;15.90;99.90
27741;DHT22;15134;48.768;9.184;2022-10-19T01:28:22;15.80;99.90
27741;DHT22;15134;48.768;9.184;2022-10-19T01:31:00;15.90;99.90
27741;DHT22;15134;48.768;9.184;2022-10-19T01:36:40;16.00;99.90
27741;DHT22;15134;48.768;9.184;2022-10-19T01:39:19;16.00;99.90
27741;DHT22;15134;48.768;9.184;2022-10-19T01:42:25;16.10;99.90
27741;DHT22;15134;48.768;9.184;2022-10-19T01:45:07;16.20;99.90
27741;DHT22;15134;48.768;9.184;2022-10-19T01:47:51;16.20;99.90
27741;DHT22;15134;48.768;9.184;2022-10-19T01:50:28;16.30;99.90
27741;DHT22;15134;48.768;9.184;2022-10-19T01:52:56;16.30;99.90
27741;DHT22;15134;48.768;9.184;2022-10-19T01:55:24;16.30;99.90
27741;DHT22;15134;48.768;9.184;2022-10-19T01:58:13;16.30;99.90
27741;DHT22;15134;48.768;9.184;2022-10-19T02:00:42;16.30;99.90
27741;DHT22;15134;48.768;9.184;2022-10-19T02:03:10;16.30;99.90
27741;DHT22;15134;48.768;9.184;2022-10-19T02:05:38;16.30;99.90
27741;DHT22;15134;48.768;9.184;2022-10-19T02:08:11;16.30;99.90
27741;DHT22;15134;48.768;9.184;2022-10-19T02:10:38;16.30;99.90
27741;DHT22;15134;48.768;9.184;2022-10-19T02:13:06;16.30;99.90
27741;DHT22;15134;48.768;9.184;2022-10-19T02:15:35;16.30;99.90
27741;DHT22;15134;48.768;9.184;2022-10-19T02:18:02;16.30;99.90
27741;DHT22;15134;48.768;9.184;2022-10-19T02:20:29;16.40;99.90
27741;DHT22;15134;48.768;9.184;2022-10-19T02:22:55;16.40;99.90
27741;DHT22;15134;48.768;9.184;2022-10-19T02:25:22;16.40;99.90
27741;DHT22;15134;48.768;9.184;2022-10-19T02:27:48;16.40;99.90
27741;DHT22;15134;48.768;9.184;2022-10-19T02:30:16;16.30;99.90
27741;DHT22;15134;48.768;9.184;2022-10-19T02:32:44;16.40;99.90
27741;DHT22;15134;48.768;9.184;2022-10-19T02:35:12;16.40;99.90
27741;DHT22;15134;48.768;9.184;2022-10-19T02:37:39;16.40;99.90
27741;DHT22;15134;48.768;9.184;2022-10-19T02:40:06;16.30;99.90
27741;DHT22;15134;48.768;9.184;2022-10-19T02:42:50;16.30;99.90
27741;DHT22;15134;48.768;9.184;2022-10-19T02:45:22;16.30;99.90
27741;DHT22;15134;48.768;9.184;2022-10-19T02:47:59;16.40;99.90
27741;DHT22;15134;48.768;9.184;2022-10-19T02:50:26;16.40;99.90
27741;DHT22;15134;48.768;9.184;2022-10-19T02:52:52;16.40;99.90
27741;DHT22;15134;48.768;9.184;2022-10-19T02:55:18;16.40;99.90
27741;DHT22;15134;48.768;9.184;2022-10-19T02:57:43;16.40;99.90
27741;DHT22;15134;48.768;9.184;2022-10-19T03:00:10;16.40;99.90
27741;DHT22;15134;48.768;9.184;2022-10-19T03:02:36;16.40;99.90
27741;DHT22;15134;48.768;9.184;2022-10-19T03:05:03;16.40;99.90
27741;DHT22;15134;48.768;9.184;2022-10-19T03:07:29;16.40;99.90
27741;DHT22;15134;48.768;9.184;2022-10-19T03:09:54;16.30;99.90
27741;DHT22;15134;48.768;9.184;2022-10-19T03:12:20;16.30;99.90
27741;DHT22;15134;48.768;9.184;2022-10-19T03:14:46;16.30;99.90
27741;DHT22;15134;48.768;9.184;2022-10-19T03:17:12;16.30;99.90
27741;DHT22;15134;48.768;9.184;2022-10-19T03:19:38;16.30;99.90
27741;DHT22;15134;48.768;9.184;2022-10-19T03:22:04;16.30;99.90
27741;DHT22;15134;48.768;9.184;2022-10-19T03:24:30;16.30;99.90
27741;DHT22;15134;48.768;9.184;2022-10-19T03:26:56;16.30;99.90
27741;DHT22;15134;48.768;9.184;2022-10-19T03:29:21;16.30;99.90
27741;DHT22;15134;48.768;9.184;2022-10-19T03:31:47;16.30;99.90
27741;DHT22;15134;48.768;9.184;2022-10-19T03:34:13;16.30;99.90
27741;DHT22;15134;48.768;9.184;2022-10-19T03:36:39;16.30;99.90
27741;DHT22;15134;48.768;9.184;2022-10-19T03:39:08;16.30;99.90
27741;DHT22;15134;48.768;9.184;2022-10-19T03:41:36;16.20;99.90
27741;DHT22;15134;48.768;9.184;2022-10-19T03:44:03;16.20;99.90
27741;DHT22;15134;48.768;9.184;2022-10-19T03:46:29;16.20;99.90
27741;DHT22;15134;48.768;9.184;2022-10-19T03:48:55;16.10;99.90
27741;DHT22;15134;48.768;9.184;2022-10-19T03:51:25;16.10;99.90
27741;DHT22;15134;48.768;9.184;2022-10-19T03:53:53;16.10;99.90
27741;DHT22;15134;48.768;9.184;2022-10-19T03:56:21;16.10;99.90
27741;DHT22;15134;48.768;9.184;2022-10-19T03:58:48;16.10;99.90
27741;DHT22;15134;48.768;9.184;2022-10-19T04:03:44;16.10;99.90
27741;DHT22;15134;48.768;9.184;2022-10-19T04:06:16;16.10;99.90
27741;DHT22;15134;48.768;9.184;2022-10-19T04:08:43;16.10;99.90
27741;DHT22;15134;48.768;9.184;2022-10-19T04:11:12;16.10;99.90
27741;DHT22;15134;48.768;9.184;2022-10-19T04:13:38;16.10;99.90
27741;DHT22;15134;48.768;9.184;2022-10-19T04:16:05;16.10;99.90
27741;DHT22;15134;48.768;9.184;2022-10-19T04:18:31;16.10;99.90
27741;DHT22;15134;48.768;9.184;2022-10-19T04:21:02;16.10;99.90
27741;DHT22;15134;48.768;9.184;2022-10-19T04:23:31;16.10;99.90
27741;DHT22;15134;48.768;9.184;2022-10-19T04:28:26;16.10;99.90
27741;DHT22;15134;48.768;9.184;2022-10-19T04:30:52;16.20;99.90
27741;DHT22;15134;48.768;9.184;2022-10-19T04:33:18;16.20;99.90
27741;DHT22;15134;48.768;9.184;2022-10-19T04:35:43;16.20;99.90
27741;DHT22;15134;48.768;9.184;2022-10-19T04:38:09;16.20;99.90
27741;DHT22;15134;48.768;9.184;2022-10-19T04:40:35;16.20;99.90
27741;DHT22;15134;48.768;9.184;2022-10-19T04:43:01;16.20;99.90
27741;DHT22;15134;48.768;9.184;2022-10-19T04:45:27;16.20;99.90
27741;DHT22;15134;48.768;9.184;2022-10-19T04:47:53;16.20;99.90
27741;DHT22;15134;48.768;9.184;2022-10-19T04:50:21;16.20;99.90
27741;DHT22;15134;48.768;9.184;2022-10-19T04:52:54;16.20;99.90
27741;DHT22;15134;48.768;9.184;2022-10-19T04:55:19;16.20;99.90
27741;DHT22;15134;48.768;9.184;2022-10-19T04:57:45;16.20;99.90
27741;DHT22;15134;48.768;9.184;2022-10-19T05:00:11;16.20;99.90
27741;DHT22;15134;48.768;9.184;2022-10-19T05:02:42;16.20;99.90
27741;DHT22;15134;48.768;9.184;2022-10-19T05:05:07;16.10;99.90
27741;DHT22;15134;48.768;9.184;2022-10-19T05:07:33;16.10;99.90
27741;DHT22;15134;48.768;9.184;2022-10-19T05:09:59;16.00;99.90
27741;DHT22;15134;48.768;9.184;2022-10-19T05:12:24;16.10;99.90
27741;DHT22;15134;48.768;9.184;2022-10-19T05:14:50;16.10;99.90
27741;DHT22;15134;48.768;9.184;2022-10-19T05:17:16;16.10;99.90
27741;DHT22;15134;48.768;9.184;2022-10-19T05:19:41;16.10;99.90
27741;DHT22;15134;48.768;9.184;2022-10-19T05:22:08;16.10;99.90
27741;DHT22;15134;48.768;9.184;2022-10-19T05:24:33;16.10;99.90
27741;DHT22;15134;48.768;9.184;2022-10-19T05:26:59;16.10;99.90
27741;DHT22;15134;48.768;9.184;2022-10-19T05:29:25;16.10;99.90
27741;DHT22;15134;48.768;9.184;2022-10-19T05:31:50;16.00;99.90
27741;DHT22;15134;48.768;9.184;2022-10-19T05:34:16;15.90;99.90
27741;DHT22;15134;48.768;9.184;2022-10-19T05:36:42;15.70;99.90
27741;DHT22;15134;48.768;9.184;2022-10-19T05:39:15;15.70;99.90
27741;DHT22;15134;48.768;9.184;2022-10-19T05:41:42;15.80;99.90
27741;DHT22;15134;48.768;9.184;2022-10-19T05:44:13;15.80;99.90
27741;DHT22;15134;48.768;9.184;2022-10-19T05:46:39;15.90;99.90
27741;DHT22;15134;48.768;9.184;2022-10-19T05:49:05;15.90;99.90
27741;DHT22;15134;48.768;9.184;2022-10-19T05:51:31;15.80;99.90
27741;DHT22;15134;48.768;9.184;2022-10-19T05:53:56;15.80;99.90
27741;DHT22;15134;48.768;9.184;2022-10-19T05:56:25;15.80;99.90
27741;DHT22;15134;48.768;9.184;2022-10-19T05:58:51;15.80;99.90
27741;DHT22;15134;48.768;9.184;2022-10-19T06:01:18;15.80;99.90
27741;DHT22;15134;48.768;9.184;2022-10-19T06:03:45;15.80;99.90
27741;DHT22;15134;48.768;9.184;2022-10-19T06:06:11;15.90;99.90
27741;DHT22;15134;48.768;9.184;2022-10-19T06:08:38;15.80;99.90
27741;DHT22;15134;48.768;9.184;2022-10-19T06:11:11;15.80;99.90
27741;DHT22;15134;48.768;9.184;2022-10-19T06:13:37;15.60;99.90
27741;DHT22;15134;48.768;9.184;2022-10-19T06:16:05;15.60;99.90
27741;DHT22;15134;48.768;9.184;2022-10-19T06:18:31;15.60;99.90
27741;DHT22;15134;48.768;9.184;2022-10-19T06:21:04;15.50;99.90
27741;DHT22;15134;48.768;9.184;2022-10-19T06:23:31;15.40;99.90
27741;DHT22;15134;48.768;9.184;2022-10-19T06:25:58;15.40;99.90
27741;DHT22;15134;48.768;9.184;2022-10-19T06:28:24;15.50;99.90
27741;DHT22;15134;48.768;9.184;2022-10-19T06:30:49;15.40;99.90
27741;DHT22;15134;48.768;9.184;2022-10-19T06:33:15;15.40;99.90
27741;DHT22;15134;48.768;9.184;2022-10-19T06:35:41;15.40;99.90
27741;DHT22;15134;48.768;9.184;2022-10-19T06:38:08;15.40;99.90
27741;DHT22;15134;48.768;9.184;2022-10-19T06:40:34;15.50;99.90
27741;DHT22;15134;48.768;9.184;2022-10-19T06:43:00;15.60;99.90
27741;DHT22;15134;48.768;9.184;2022-10-19T06:45:26;15.50;99.90
27741;DHT22;15134;48.768;9.184;2022-10-19T06:47:52;15.50;99.90
27741;DHT22;15134;48.768;9.184;2022-10-19T06:50:18;15.50;99.90
27741;DHT22;15134;48.768;9.184;2022-10-19T06:52:45;15.60;99.90
27741;DHT22;15134;48.768;9.184;2022-10-19T06:55:11;15.60;99.90
27741;DHT22;15134;48.768;9.184;2022-10-19T06:57:37;15.70;99.90
27741;DHT22;15134;48.768;9.184;2022-10-19T07:00:04;15.80;99.90
27741;DHT22;15134;48.768;9.184;2022-10-19T07:02:31;15.90;99.90
27741;DHT22;15134;48.768;9.184;2022-10-19T07:04:56;16.00;99.90
27741;DHT22;15134;48.768;9.184;2022-10-19T07:07:22;16.00;99.90
27741;DHT22;15134;48.768;9.184;2022-10-19T07:09:48;16.00;99.90
27741;DHT22;15134;48.768;9.184;2022-10-19T07:12:13;16.10;99.90
27741;DHT22;15134;48.768;9.184;2022-10-19T07:14:39;16.10;99.90
27741;DHT22;15134;48.768;9.184;2022-10-19T07:17:06;16.10;99.90
27741;DHT22;15134;48.768;9.184;2022-10-19T07:19:32;16.20;99.90
27741;DHT22;15134;48.768;9.184;2022-10-19T07:21:57;16.20;99.90
27741;DHT22;15134;48.768;9.184;2022-10-19T07:24:23;16.20;99.90
27741;DHT22;15134;48.768;9.184;2022-10-19T07:26:49;16.20;99.90
27741;DHT22;15134;48.768;9.184;2022-10-19T07:29:15;16.20;99.90
27741;DHT22;15134;48.768;9.184;2022-10-19T07:31:40;16.30;99.90
27741;DHT22;15134;48.768;9.184;2022-10-19T07:34:10;16.40;99.90
27741;DHT22;15134;48.768;9.184;2022-10-19T07:36:37;16.40;99.90
27741;DHT22;15134;48.768;9.184;2022-10-19T07:39:05;16.20;99.90
27741;DHT22;15134;48.768;9.184;2022-10-19T07:41:32;16.30;99.90
27741;DHT22;15134;48.768;9.184;2022-10-19T07:43:59;16.40;99.90
27741;DHT22;15134;48.768;9.184;2022-10-19T07:46:27;16.50;99.90
27741;DHT22;15134;48.768;9.184;2022-10-19T07:49:04;16.60;99.90
27741;DHT22;15134;48.768;9.184;2022-10-19T07:51:30;16.60;99.90
27741;DHT22;15134;48.768;9.184;2022-10-19T07:53:59;16.70;99.90
27741;DHT22;15134;48.768;9.184;2022-10-19T07:56:26;16.80;99.90
27741;DHT22;15134;48.768;9.184;2022-10-19T07:58:54;16.80;99.90
27741;DHT22;15134;48.768;9.184;2022-10-19T08:01:26;16.90;99.90
27741;DHT22;15134;48.768;9.184;2022-10-19T08:03:53;16.90;99.90
27741;DHT22;15134;48.768;9.184;2022-10-19T08:06:19;16.90;99.90
27741;DHT22;15134;48.768;9.184;2022-10-19T08:08:46;17.00;99.90
27741;DHT22;15134;48.768;9.184;2022-10-19T08:11:15;17.10;99.90
27741;DHT22;15134;48.768;9.184;2022-10-19T08:13:42;17.10;99.90
27741;DHT22;15134;48.768;9.184;2022-10-19T08:16:31;16.90;99.90
27741;DHT22;15134;48.768;9.184;2022-10-19T08:18:59;17.00;99.90
27741;DHT22;15134;48.768;9.184;2022-10-19T08:21:26;17.00;99.90
27741;DHT22;15134;48.768;9.184;2022-10-19T08:23:52;17.00;99.90
27741;DHT22;15134;48.768;9.184;2022-10-19T08:26:18;17.00;99.90
27741;DHT22;15134;48.768;9.184;2022-10-19T08:28:44;16.90;99.90
27741;DHT22;15134;48.768;9.184;2022-10-19T08:31:12;16.90;99.90
27741;DHT22;15134;48.768;9.184;2022-10-19T08:33:38;16.90;99.90
27741;DHT22;15134;48.768;9.184;2022-10-19T08:36:08;17.00;99.90
27741;DHT22;15134;48.768;9.184;2022-10-19T08:38:35;17.00;99.90
27741;DHT22;15134;48.768;9.184;2022-10-19T08:41:05;17.10;99.90
27741;DHT22;15134;48.768;9.184;2022-10-19T08:43:35;17.20;99.90
27741;DHT22;15134;48.768;9.184;2022-10-19T08:46:24;17.20;99.90
27741;DHT22;15134;48.768;9.184;2022-10-19T08:48:51;17.20;99.90
27741;DHT22;15134;48.768;9.184;2022-10-19T08:51:16;17.10;99.90
27741;DHT22;15134;48.768;9.184;2022-10-19T08:53:44;17.10;99.90
27741;DHT22;15134;48.768;9.184;2022-10-19T08:59:04;16.80;99.90
27741;DHT22;15134;48.768;9.184;2022-10-19T09:01:51;16.60;99.90
27741;DHT22;15134;48.768;9.184;2022-10-19T09:09:42;16.70;99.90
27741;DHT22;15134;48.768;9.184;2022-10-19T09:12:14;16.60;99.90
27741;DHT22;15134;48.768;9.184;2022-10-19T09:15:02;16.50;99.90
27741;DHT22;15134;48.768;9.184;2022-10-19T09:17:29;16.60;99.90
27741;DHT22;15134;48.768;9.184;2022-10-19T09:19:55;16.60;99.90
27741;DHT22;15134;48.768;9.184;2022-10-19T09:22:24;16.70;99.90
27741;DHT22;15134;48.768;9.184;2022-10-19T09:25:00;16.80;99.90
27741;DHT22;15134;48.768;9.184;2022-10-19T09:27:38;16.90;99.90
27741;DHT22;15134;48.768;9.184;2022-10-19T09:30:12;16.90;99.90
27741;DHT22;15134;48.768;9.184;2022-10-19T09:32:40;16.90;99.90
27741;DHT22;15134;48.768;9.184;2022-10-19T09:35:29;17.00;99.90
27741;DHT22;15134;48.768;9.184;2022-10-19T09:37:56;17.10;99.90
27741;DHT22;15134;48.768;9.184;2022-10-19T09:40:26;17.20;99.90
27741;DHT22;15134;48.768;9.184;2022-10-19T09:42:52;17.10;99.90
27741;DHT22;15134;48.768;9.184;2022-10-19T09:46:02;17.10;99.90
27741;DHT22;15134;48.768;9.184;2022-10-19T09:48:40;17.10;99.90
27741;DHT22;15134;48.768;9.184;2022-10-19T09:51:13;17.10;99.90
27741;DHT22;15134;48.768;9.184;2022-10-19T09:53:46;16.90;99.90
27741;DHT22;15134;48.768;9.184;2022-10-19T09:56:22;16.80;99.90
27741;DHT22;15134;48.768;9.184;2022-10-19T09:58:53;16.80;99.90
27741;DHT22;15134;48.768;9.184;2022-10-19T10:01:32;16.70;99.90
27741;DHT22;15134;48.768;9.184;2022-10-19T10:04:12;16.70;99.90
27741;DHT22;15134;48.768;9.184;2022-10-19T10:06:39;16.70;99.90
27741;DHT22;15134;48.768;9.184;2022-10-19T10:09:05;16.70;99.90
27741;DHT22;15134;48.768;9.184;2022-10-19T10:11:36;16.70;99.90
27741;DHT22;15134;48.768;9.184;2022-10-19T10:14:28;16.70;99.90
27741;DHT22;15134;48.768;9.184;2022-10-19T10:17:02;16.70;99.90
27741;DHT22;15134;48.768;9.184;2022-10-19T10:19:30;16.70;99.90
27741;DHT22;15134;48.768;9.184;2022-10-19T10:21:57;16.80;99.90
27741;DHT22;15134;48.768;9.184;2022-10-19T10:24:29;16.90;99.90
27741;DHT22;15134;48.768;9.184;2022-10-19T10:27:00;16.90;99.90
27741;DHT22;15134;48.768;9.184;2022-10-19T10:29:28;17.00;99.90
27741;DHT22;15134;48.768;9.184;2022-10-19T10:32:05;17.00;99.90
27741;DHT22;15134;48.768;9.184;2022-10-19T10:37:38;17.10;99.90
27741;DHT22;15134;48.768;9.184;2022-10-19T10:40:04;17.00;99.90
27741;DHT22;15134;48.768;9.184;2022-10-19T10:42:42;17.10;99.90
27741;DHT22;15134;48.768;9.184;2022-10-19T10:45:30;17.10;99.90
27741;DHT22;15134;48.768;9.184;2022-10-19T10:47:57;17.10;99.90
27741;DHT22;15134;48.768;9.184;2022-10-19T10:50:30;17.20;99.90
27741;DHT22;15134;48.768;9.184;2022-10-19T10:53:09;17.30;99.90
27741;DHT22;15134;48.768;9.184;2022-10-19T10:55:56;17.40;99.90
27741;DHT22;15134;48.768;9.184;2022-10-19T11:01:00;17.60;99.90
27741;DHT22;15134;48.768;9.184;2022-10-19T11:03:29;17.60;99.90
27741;DHT22;15134;48.768;9.184;2022-10-19T11:05:58;17.70;99.90
27741;DHT22;15134;48.768;9.184;2022-10-19T11:11:44;17.70;99.90
27741;DHT22;15134;48.768;9.184;2022-10-19T11:16:57;17.90;99.90
27741;DHT22;15134;48.768;9.184;2022-10-19T11:19:35;18.00;99.90
27741;DHT22;15134;48.768;9.184;2022-10-19T11:22:28;17.90;99.90
27741;DHT22;15134;48.768;9.184;2022-10-19T11:36:45;17.90;99.90
27741;DHT22;15134;48.768;9.184;2022-10-19T11:50:22;18.20;99.90
27741;DHT22;15134;48.768;9.184;2022-10-19T11:55:50;18.10;99.90
27741;DHT22;15134;48.768;9.184;2022-10-19T11:58:39;18.10;99.90
27741;DHT22;15134;48.768;9.184;2022-10-19T12:09:05;18.00;99.90
27741;DHT22;15134;48.768;9.184;2022-10-19T12:11:40;18.10;99.90
27741;DHT22;15134;48.768;9.184;2022-10-19T12:14:13;18.30;99.90
27741;DHT22;15134;48.768;9.184;2022-10-19T12:16:46;18.40;99.90
27741;DHT22;15134;48.768;9.184;2022-10-19T12:19:26;18.40;99.90
27741;DHT22;15134;48.768;9.184;2022-10-19T12:21:56;18.40;99.90
27741;DHT22;15134;48.768;9.184;2022-10-19T12:24:23;18.40;99.90
27741;DHT22;15134;48.768;9.184;2022-10-19T12:26:51;18.40;99.90
27741;DHT22;15134;48.768;9.184;2022-10-19T12:29:27;18.40;99.90
27741;DHT22;15134;48.768;9.184;2022-10-19T12:31:55;18.50;99.90
27741;DHT22;15134;48.768;9.184;2022-10-19T12:37:30;18.60;99.90
27741;DHT22;15134;48.768;9.184;2022-10-19T12:40:36;18.60;99.90
27741;DHT22;15134;48.768;9.184;2022-10-19T12:48:25;18.40;99.90
27741;DHT22;15134;48.768;9.184;2022-10-19T12:53:39;18.10;99.90
27741;DHT22;15134;48.768;9.184;2022-10-19T13:01:22;17.70;99.90
27741;DHT22;15134;48.768;9.184;2022-10-19T13:03:53;17.80;99.90
27741;DHT22;15134;48.768;9.184;2022-10-19T13:06:32;17.70;99.90
27741;DHT22;15134;48.768;9.184;2022-10-19T13:09:04;17.70;99.90
27741;DHT22;15134;48.768;9.184;2022-10-19T13:11:31;17.70;99.90
27741;DHT22;15134;48.768;9.184;2022-10-19T13:26:44;17.70;99.90
27741;DHT22;15134;48.768;9.184;2022-10-19T13:29:47;17.70;99.90
27741;DHT22;15134;48.768;9.184;2022-10-19T13:35:31;17.70;99.90
27741;DHT22;15134;48.768;9.184;2022-10-19T13:49:05;17.70;99.90
27741;DHT22;15134;48.768;9.184;2022-10-19T14:00:20;17.60;99.90
27741;DHT22;15134;48.768;9.184;2022-10-19T14:05:37;17.60;99.90
27741;DHT22;15134;48.768;9.184;2022-10-19T14:11:05;17.50;99.90
27741;DHT22;15134;48.768;9.184;2022-10-19T14:13:31;17.50;99.90
27741;DHT22;15134;48.768;9.184;2022-10-19T14:15:58;17.50;99.90
27741;DHT22;15134;48.768;9.184;2022-10-19T14:18:31;17.40;99.90
27741;DHT22;15134;48.768;9.184;2022-10-19T14:20:59;17.40;99.90
27741;DHT22;15134;48.768;9.184;2022-10-19T14:26:26;17.40;99.90
27741;DHT22;15134;48.768;9.184;2022-10-19T14:28:44;17.30;99.90
27741;DHT22;15134;48.768;9.184;2022-10-19T14:31:20;17.30;99.90
27741;DHT22;15134;48.768;9.184;2022-10-19T14:33:50;17.30;99.90
27741;DHT22;15134;48.768;9.184;2022-10-19T14:36:21;17.30;99.90
27741;DHT22;15134;48.768;9.184;2022-10-19T14:38:48;17.30;99.90
27741;DHT22;15134;48.768;9.184;2022-10-19T14:41:30;17.20;99.90
27741;DHT22;15134;48.768;9.184;2022-10-19T14:43:58;17.30;99.90
27741;DHT22;15134;48.768;9.184;2022-10-19T14:46:30;17.20;99.90
27741;DHT22;15134;48.768;9.184;2022-10-19T14:49:04;17.20;99.90
27741;DHT22;15134;48.768;9.184;2022-10-19T14:51:35;17.20;99.90
27741;DHT22;15134;48.768;9.184;2022-10-19T14:56:59;17.20;99.90
27741;DHT22;15134;48.768;9.184;2022-10-19T14:59:27;17.10;99.90
27741;DHT22;15134;48.768;9.184;2022-10-19T15:01:56;17.10;99.90
27741;DHT22;15134;48.768;9.184;2022-10-19T15:04:25;17.10;99.90
27741;DHT22;15134;48.768;9.184;2022-10-19T15:06:52;17.10;99.90
27741;DHT22;15134;48.768;9.184;2022-10-19T15:09:26;17.20;99.90
27741;DHT22;15134;48.768;9.184;2022-10-19T15:12:16;17.20;99.90
27741;DHT22;15134;48.768;9.184;2022-10-19T15:14:42;17.20;99.90
27741;DHT22;15134;48.768;9.184;2022-10-19T15:17:35;17.20;99.90
27741;DHT22;15134;48.768;9.184;2022-10-19T15:20:03;17.20;99.90
27741;DHT22;15134;48.768;9.184;2022-10-19T15:27:37;17.10;99.90
27741;DHT22;15134;48.768;9.184;2022-10-19T15:30:28;17.10;99.90
27741;DHT22;15134;48.768;9.184;2022-10-19T15:35:30;17.00;99.90
27741;DHT22;15134;48.768;9.184;2022-10-19T15:38:22;17.00;99.90
27741;DHT22;15134;48.768;9.184;2022-10-19T15:40:55;16.90;99.90
27741;DHT22;15134;48.768;9.184;2022-10-19T15:48:49;16.80;99.90
27741;DHT22;15134;48.768;9.184;2022-10-19T15:53:55;16.80;99.90
27741;DHT22;15134;48.768;9.184;2022-10-19T15:56:22;16.70;99.90
27741;DHT22;15134;48.768;9.184;2022-10-19T15:58:49;16.70;99.90
27741;DHT22;15134;48.768;9.184;2022-10-19T16:01:15;16.70;99.90
27741;DHT22;15134;48.768;9.184;2022-10-19T16:03:41;16.60;99.90
27741;DHT22;15134;48.768;9.184;2022-10-19T16:06:07;16.60;99.90
27741;DHT22;15134;48.768;9.184;2022-10-19T16:08:33;16.50;99.90
27741;DHT22;15134;48.768;9.184;2022-10-19T16:10:58;16.50;99.90
27741;DHT22;15134;48.768;9.184;2022-10-19T16:13:24;16.50;99.90
27741;DHT22;15134;48.768;9.184;2022-10-19T16:15:51;16.40;99.90
27741;DHT22;15134;48.768;9.184;2022-10-19T16:18:18;16.40;99.90
27741;DHT22;15134;48.768;9.184;2022-10-19T16:20:44;16.30;99.90
27741;DHT22;15134;48.768;9.184;2022-10-19T16:23:09;16.30;99.90
27741;DHT22;15134;48.768;9.184;2022-10-19T16:25:37;16.30;99.90
27741;DHT22;15134;48.768;9.184;2022-10-19T16:28:02;16.20;99.90
27741;DHT22;15134;48.768;9.184;2022-10-19T16:30:28;16.20;99.90
27741;DHT22;15134;48.768;9.184;2022-10-19T16:32:54;16.10;99.90
27741;DHT22;15134;48.768;9.184;2022-10-19T16:35:19;16.10;99.90
27741;DHT22;15134;48.768;9.184;2022-10-19T16:37:45;16.00;99.90
27741;DHT22;15134;48.768;9.184;2022-10-19T16:40:11;16.00;99.90
27741;DHT22;15134;48.768;9.184;2022-10-19T16:42:37;16.00;99.90
27741;DHT22;15134;48.768;9.184;2022-10-19T16:45:02;15.90;99.90
27741;DHT22;15134;48.768;9.184;2022-10-19T16:47:28;15.90;99.90
27741;DHT22;15134;48.768;9.184;2022-10-19T16:49:59;15.80;99.90
27741;DHT22;15134;48.768;9.184;2022-10-19T16:52:28;15.80;99.90
27741;DHT22;15134;48.768;9.184;2022-10-19T16:54:56;15.80;99.90
27741;DHT22;15134;48.768;9.184;2022-10-19T16:57:22;15.70;99.90
27741;DHT22;15134;48.768;9.184;2022-10-19T16:59:51;15.70;99.90
27741;DHT22;15134;48.768;9.184;2022-10-19T17:02:21;15.70;99.90
27741;DHT22;15134;48.768;9.184;2022-10-19T17:04:47;15.70;99.90
27741;DHT22;15134;48.768;9.184;2022-10-19T17:07:13;15.70;99.90
27741;DHT22;15134;48.768;9.184;2022-10-19T17:09:39;15.70;99.90
27741;DHT22;15134;48.768;9.184;2022-10-19T17:12:06;15.60;99.90
27741;DHT22;15134;48.768;9.184;2022-10-19T17:14:32;15.70;99.90
27741;DHT22;15134;48.768;9.184;2022-10-19T17:16:57;15.60;99.90
27741;DHT22;15134;48.768;9.184;2022-10-19T17:19:23;15.60;99.90
27741;DHT22;15134;48.768;9.184;2022-10-19T17:21:49;15.60;99.90
27741;DHT22;15134;48.768;9.184;2022-10-19T17:24:17;15.50;99.90
27741;DHT22;15134;48.768;9.184;2022-10-19T17:26:43;15.50;99.90
27741;DHT22;15134;48.768;9.184;2022-10-19T17:29:12;15.50;99.90
27741;DHT22;15134;48.768;9.184;2022-10-19T17:31:38;15.50;99.90
27741;DHT22;15134;48.768;9.184;2022-10-19T17:34:04;15.50;99.90
27741;DHT22;15134;48.768;9.184;2022-10-19T17:36:33;15.50;99.90
27741;DHT22;15134;48.768;9.184;2022-10-19T17:39:01;15.50;99.90
27741;DHT22;15134;48.768;9.184;2022-10-19T17:41:28;15.50;99.90
27741;DHT22;15134;48.768;9.184;2022-10-19T17:43:55;15.50;99.90
27741;DHT22;15134;48.768;9.184;2022-10-19T17:46:27;15.50;99.90
27741;DHT22;15134;48.768;9.184;2022-10-19T17:48:55;15.40;99.90
27741;DHT22;15134;48.768;9.184;2022-10-19T17:51:23;15.40;99.90
27741;DHT22;15134;48.768;9.184;2022-10-19T17:53:53;15.30;99.90
27741;DHT22;15134;48.768;9.184;2022-10-19T17:56:20;15.30;99.90
27741;DHT22;15134;48.768;9.184;2022-10-19T17:58:47;15.30;99.90
27741;DHT22;15134;48.768;9.184;2022-10-19T18:01:14;15.30;99.90
27741;DHT22;15134;48.768;9.184;2022-10-19T18:03:40;15.30;99.90
27741;DHT22;15134;48.768;9.184;2022-10-19T18:06:09;15.20;99.90
27741;DHT22;15134;48.768;9.184;2022-10-19T18:08:40;15.30;99.90
27741;DHT22;15134;48.768;9.184;2022-10-19T18:11:15;15.20;99.90
27741;DHT22;15134;48.768;9.184;2022-10-19T18:13:41;15.20;99.90
27741;DHT22;15134;48.768;9.184;2022-10-19T18:18:42;15.30;99.90
27741;DHT22;15134;48.768;9.184;2022-10-19T18:21:12;15.30;99.90